Time;durP1;ratioP1;P1;durP2;ratioP2;P2;SDS_P1;SDS_P2;PMS_P1;PMS_P2;Temp;Humidity;BMP_temperature;BMP_pressure;BME280_temperature;BME280_humidity;BME280_pressure;Samples;Min_cycle;Max_cycle;Signal;HPM_P1;HPM_P2
2024/03/05 00:01:14;;;;;;;;;;;;;;;;;;5049256;28;5005;-59
2024/03/05 00:03:40;;;;;;;;;;;;;;;;;;5066754;28;4735;-61
2024/03/05 00:06:06;;;;;;;;;;;;;;;;;;5054697;28;5070;-60
2024/03/05 00:08:31;;;;;;;;;;;;;;;;;;5045067;28;3247;-60
2024/03/05 00:10:57;;;;;;;;;;;;;;;;;;5047724;28;4510;-60
2024/03/05 00:13:24;;;;;;;;;;;;;;;;;;5051659;28;4462;-59
2024/03/05 00:15:52;;;;;;;;;;;;;;;;;;5045900;28;5088;-60
2024/03/05 00:18:17;;;;;;;;;;;;;;;;;;5043563;28;4560;-60
2024/03/05 00:20:42;;;;;;;;;;;;;;;;;;5050654;28;3315;-59
2024/03/05 00:23:08;;;;;;;;;;;;;;;;;;5046874;28;5046;-61
2024/03/05 00:25:33;;;;;;;;;;;;;;;;;;5031065;28;4929;-62
2024/03/05 00:27:58;;;;;;;;;;;;;;;;;;5051613;28;5102;-59
2024/03/05 00:30:24;;;;;;;;;;;;;;;;;;5047817;28;4500;-61
2024/03/05 00:32:49;;;;;;;;;;;;;;;;;;5046926;28;3287;-59
2024/03/05 00:35:15;;;;;;;;;;;;;;;;;;5037044;28;5085;-60
2024/03/05 00:37:41;;;;;;;;;;;;;;;;;;5041014;28;4927;-58
2024/03/05 00:40:08;;;;;;;;;;;;;;;;;;5049117;28;5096;-58
2024/03/05 00:42:34;;;;;;;;;;;;;;;;;;5066731;28;4567;-60
2024/03/05 00:44:59;;;;;;;;;;;;;;;;;;5027827;28;4981;-60
2024/03/05 00:47:24;;;;;;;;;;;;;;;;;;5036157;28;3531;-59
2024/03/05 00:49:50;;;;;;;;;;;;;;;;;;5042879;28;5169;-59
2024/03/05 00:52:15;;;;;;;;;;;;;;;;;;5035357;28;4975;-60
2024/03/05 00:54:40;;;;;;;;;;;;;;;;;;5044725;28;5622;-58
2024/03/05 00:57:06;;;;;;;;;;;;;;;;;;5043896;28;5675;-60
2024/03/05 00:59:31;;;;;;;;;;;;;;;;;;5039849;28;3346;-58
2024/03/05 01:01:57;;;;;;;;;;;;;;;;;;5035046;28;5067;-59
2024/03/05 01:04:23;;;;;;;;;;;;;;;;;;5041040;28;4743;-63
2024/03/05 01:06:48;;;;;;;;;;;;;;;;;;5035802;28;5161;-59
2024/03/05 01:09:18;;;;;;;;;;;;;;;;;;5042548;28;4823;-58
2024/03/05 01:11:43;;;;;;;;;;;;;;;;;;5051665;28;1052;-58
2024/03/05 01:14:09;;;;;;;;;;;;;;;;;;5041521;28;4869;-60
2024/03/05 01:16:34;;;;;;;;;;;;;;;;;;5042869;28;5003;-58
2024/03/05 01:18:59;;;;;;;;;;;;;;;;;;5045531;28;5256;-59
2024/03/05 01:21:25;;;;;;;;;;;;;;;;;;5046824;28;5230;-58
2024/03/05 01:23:50;;;;;;;;;;;;;;;;;;5044913;28;3310;-59
2024/03/05 01:26:16;;;;;;;;;;;;;;;;;;5045135;28;5102;-58
2024/03/05 01:28:41;;;;;;;;;;;;;;;;;;5042659;28;5408;-59
2024/03/05 01:31:08;;;;;;;;;;;;;;;;;;5061732;28;5089;-61
2024/03/05 01:33:35;;;;;;;;;;;;;;;;;;5046400;28;5041;-61
2024/03/05 01:36:01;;;;;;;;;;;;;;;;;;5050456;28;4727;-58
2024/03/05 01:38:27;;;;;;;;;;;;;;;;;;5056392;28;3289;-58
2024/03/05 01:40:52;;;;;;;;;;;;;;;;;;5038140;28;5159;-59
2024/03/05 01:43:19;;;;;;;;;;;;;;;;;;5044292;28;5592;-59
2024/03/05 01:45:44;;;;;;;;;;;;;;;;;;5051023;28;5437;-58
2024/03/05 01:48:10;;;;;;;;;;;;;;;;;;5052034;28;4504;-60
2024/03/05 01:50:35;;;;;;;;;;;;;;;;;;5059574;28;3455;-58
2024/03/05 01:53:08;;;;;;;;;;;;;;;;;;5057203;28;4966;-59
2024/03/05 01:55:33;;;;;;;;;;;;;;;;;;5050921;28;5074;-58
2024/03/05 01:57:59;;;;;;;;;;;;;;;;;;5046235;28;5114;-58
2024/03/05 02:00:24;;;;;;;;;;;;;;;;;;5071011;28;5645;-60
2024/03/05 02:02:49;;;;;;;;;;;;;;;;;;5046527;28;3288;-59
2024/03/05 02:05:15;;;;;;;;;;;;;;;;;;5045029;28;5049;-59
2024/03/05 02:07:40;;;;;;;;;;;;;;;;;;5045673;28;5070;-59
2024/03/05 02:10:07;;;;;;;;;;;;;;;;;;5040069;28;5349;-59
2024/03/05 02:12:36;;;;;;;;;;;;;;;;;;5024727;28;4764;-61
2024/03/05 02:15:01;;;;;;;;;;;;;;;;;;5047983;28;5214;-58
2024/03/05 02:17:27;;;;;;;;;;;;;;;;;;5056853;28;1906;-58
2024/03/05 02:19:52;;;;;;;;;;;;;;;;;;5053611;28;5214;-58
2024/03/05 02:22:17;;;;;;;;;;;;;;;;;;5060493;28;5277;-58
2024/03/05 02:24:43;;;;;;;;;;;;;;;;;;5042188;28;4525;-61
2024/03/05 02:27:08;;;;;;;;;;;;;;;;;;5055130;28;4869;-61
2024/03/05 02:29:38;;;;;;;;;;;;;;;;;;5056489;28;3604;-61
2024/03/05 02:32:07;;;;;;;;;;;;;;;;;;5058375;28;5030;-60
2024/03/05 02:34:32;;;;;;;;;;;;;;;;;;5047545;28;5135;-60
2024/03/05 02:36:58;;;;;;;;;;;;;;;;;;5040583;28;4947;-59
2024/03/05 02:39:23;;;;;;;;;;;;;;;;;;5042144;28;5186;-61
2024/03/05 02:41:49;;;;;;;;;;;;;;;;;;5044724;28;3251;-59
2024/03/05 02:44:16;;;;;;;;;;;;;;;;;;5040422;28;5011;-58
2024/03/05 02:46:41;;;;;;;;;;;;;;;;;;5042712;28;5109;-57
2024/03/05 02:49:07;;;;;;;;;;;;;;;;;;5044705;28;5074;-59
2024/03/05 02:51:32;;;;;;;;;;;;;;;;;;5042349;28;5190;-57
2024/03/05 02:53:57;;;;;;;;;;;;;;;;;;5055280;28;4687;-62
2024/03/05 02:56:23;;;;;;;;;;;;;;;;;;5043167;28;3328;-59
2024/03/05 02:58:48;;;;;;;;;;;;;;;;;;5045991;28;4715;-60
2024/03/05 03:01:14;;;;;;;;;;;;;;;;;;5045349;28;4533;-60
2024/03/05 03:03:39;;;;;;;;;;;;;;;;;;5052626;28;5018;-59
2024/03/05 03:06:05;;;;;;;;;;;;;;;;;;5047842;28;4535;-59
2024/03/05 03:08:30;;;;;;;;;;;;;;;;;;5052923;28;1641;-58
2024/03/05 03:10:56;;;;;;;;;;;;;;;;;;5054485;28;4420;-58
2024/03/05 03:13:21;;;;;;;;;;;;;;;;;;5049378;28;5765;-60
2024/03/05 03:15:47;;;;;;;;;;;;;;;;;;5048407;28;4666;-58
2024/03/05 03:18:12;;;;;;;;;;;;;;;;;;5053613;28;5620;-59
2024/03/05 03:20:38;;;;;;;;;;;;;;;;;;5049629;28;3267;-62
2024/03/05 03:23:03;;;;;;;;;;;;;;;;;;5052041;28;4835;-60
2024/03/05 03:25:30;;;;;;;;;;;;;;;;;;5057813;28;4462;-61
2024/03/05 03:27:58;;;;;;;;;;;;;;;;;;5043751;28;4936;-61
2024/03/05 03:30:23;;;;;;;;;;;;;;;;;;5024616;28;4552;-64
2024/03/05 03:32:49;;;;;;;;;;;;;;;;;;5060676;28;1226;-60
2024/03/05 03:35:16;;;;;;;;;;;;;;;;;;5053031;28;4882;-60
2024/03/05 03:37:41;;;;;;;;;;;;;;;;;;5057042;28;4935;-58
2024/03/05 03:40:09;;;;;;;;;;;;;;;;;;5048540;28;5059;-59
2024/03/05 03:42:35;;;;;;;;;;;;;;;;;;5052228;28;5053;-58
2024/03/05 03:45:00;;;;;;;;;;;;;;;;;;5052380;28;5039;-60
2024/03/05 03:47:26;;;;;;;;;;;;;;;;;;5046803;28;1038;-58
2024/03/05 03:49:51;;;;;;;;;;;;;;;;;;5047990;28;4963;-57
2024/03/05 03:52:17;;;;;;;;;;;;;;;;;;5059976;28;5167;-58
2024/03/05 03:54:42;;;;;;;;;;;;;;;;;;5054593;28;4535;-58
2024/03/05 03:57:08;;;;;;;;;;;;;;;;;;5074802;28;5135;-60
2024/03/05 03:59:34;;;;;;;;;;;;;;;;;;5053628;28;3395;-59
2024/03/05 04:01:59;;;;;;;;;;;;;;;;;;5054041;28;4651;-58
2024/03/05 04:04:25;;;;;;;;;;;;;;;;;;5046028;28;5048;-59
2024/03/05 04:06:50;;;;;;;;;;;;;;;;;;5053287;28;5167;-58
2024/03/05 04:09:15;;;;;;;;;;;;;;;;;;5043271;28;5192;-60
2024/03/05 04:11:41;;;;;;;;;;;;;;;;;;5053713;28;1128;-59
2024/03/05 04:14:07;;;;;;;;;;;;;;;;;;5049000;28;4683;-59
2024/03/05 04:16:32;;;;;;;;;;;;;;;;;;5039383;28;5122;-59
2024/03/05 04:18:57;;;;;;;;;;;;;;;;;;5050330;28;5334;-60
2024/03/05 04:21:23;;;;;;;;;;;;;;;;;;5040578;28;5354;-60
2024/03/05 04:23:49;;;;;;;;;;;;;;;;;;5039839;28;3435;-59
2024/03/05 04:26:14;;;;;;;;;;;;;;;;;;5064432;28;4551;-58
2024/03/05 04:28:48;;;;;;;;;;;;;;;;;;5046981;28;4988;-58
2024/03/05 04:31:17;;;;;;;;;;;;;;;;;;5049349;28;5105;-59
2024/03/05 04:33:47;;;;;;;;;;;;;;;;;;5037571;28;5128;-58
2024/03/05 04:36:14;;;;;;;;;;;;;;;;;;5037036;28;5154;-60
2024/03/05 04:38:43;;;;;;;;;;;;;;;;;;5042023;28;3293;-61
2024/03/05 04:41:10;;;;;;;;;;;;;;;;;;5020508;28;5103;-60
2024/03/05 04:43:35;;;;;;;;;;;;;;;;;;5035863;28;4925;-59
2024/03/05 04:46:01;;;;;;;;;;;;;;;;;;5044570;28;5023;-60
2024/03/05 04:48:26;;;;;;;;;;;;;;;;;;5049683;28;5169;-60
2024/03/05 04:50:52;;;;;;;;;;;;;;;;;;5049988;28;2642;-59
2024/03/05 04:53:17;;;;;;;;;;;;;;;;;;5041659;28;5070;-60
2024/03/05 04:55:42;;;;;;;;;;;;;;;;;;5029366;28;4729;-59
2024/03/05 04:58:08;;;;;;;;;;;;;;;;;;5049996;28;4504;-59
2024/03/05 05:00:33;;;;;;;;;;;;;;;;;;5047000;28;4502;-59
2024/03/05 05:02:59;;;;;;;;;;;;;;;;;;5050295;28;5014;-60
2024/03/05 05:05:25;;;;;;;;;;;;;;;;;;5031381;28;3325;-59
2024/03/05 05:07:50;;;;;;;;;;;;;;;;;;5048668;28;4469;-59
2024/03/05 05:10:15;;;;;;;;;;;;;;;;;;5056503;28;4651;-64
2024/03/05 05:12:42;;;;;;;;;;;;;;;;;;5045035;28;4741;-58
2024/03/05 05:15:08;;;;;;;;;;;;;;;;;;5043980;28;4927;-60
2024/03/05 05:17:34;;;;;;;;;;;;;;;;;;5044573;28;3325;-60
2024/03/05 05:19:59;;;;;;;;;;;;;;;;;;5048593;28;4971;-59
2024/03/05 05:22:25;;;;;;;;;;;;;;;;;;5047697;28;5089;-58
2024/03/05 05:24:50;;;;;;;;;;;;;;;;;;5049759;28;4756;-59
2024/03/05 05:27:15;;;;;;;;;;;;;;;;;;5048690;28;4922;-59
2024/03/05 05:29:41;;;;;;;;;;;;;;;;;;5048641;28;3365;-59
2024/03/05 05:32:07;;;;;;;;;;;;;;;;;;5049485;28;5078;-60
2024/03/05 05:34:33;;;;;;;;;;;;;;;;;;5049799;28;5236;-59
2024/03/05 05:36:58;;;;;;;;;;;;;;;;;;5044405;28;4543;-60
2024/03/05 05:39:24;;;;;;;;;;;;;;;;;;5048972;28;5880;-60
2024/03/05 05:41:53;;;;;;;;;;;;;;;;;;5050048;28;1096;-60
2024/03/05 05:44:18;;;;;;;;;;;;;;;;;;5064613;28;4815;-61
2024/03/05 05:46:45;;;;;;;;;;;;;;;;;;5046746;28;4653;-61
2024/03/05 05:49:10;;;;;;;;;;;;;;;;;;5049317;28;5218;-61
2024/03/05 05:51:39;;;;;;;;;;;;;;;;;;5047526;28;4598;-61
2024/03/05 05:54:10;;;;;;;;;;;;;;;;;;5043716;28;4714;-60
2024/03/05 05:56:36;;;;;;;;;;;;;;;;;;5047215;28;1024;-62
2024/03/05 05:59:07;;;;;;;;;;;;;;;;;;5047457;28;4916;-61
2024/03/05 06:01:33;;;;;;;;;;;;;;;;;;5048191;28;5023;-58
2024/03/05 06:03:59;;;;;;;;;;;;;;;;;;5047620;28;5131;-58
2024/03/05 06:06:25;;;;;;;;;;;;;;;;;;5058865;28;5147;-58
2024/03/05 06:08:50;;;;;;;;;;;;;;;;;;5028154;28;3358;-61
2024/03/05 06:11:15;;;;;;;;;;;;;;;;;;5025201;28;4857;-61
2024/03/05 06:13:41;;;;;;;;;;;;;;;;;;5020484;28;4677;-58
2024/03/05 06:16:07;;;;;;;;;;;;;;;;;;5026323;28;4971;-57
2024/03/05 06:18:33;;;;;;;;;;;;;;;;;;5029094;28;5176;-58
2024/03/05 06:20:58;;;;;;;;;;;;;;;;;;5026222;28;4721;-57
2024/03/05 06:23:24;;;;;;;;;;;;;;;;;;5026955;28;2601;-59
2024/03/05 06:25:49;;;;;;;;;;;;;;;;;;5026185;28;4501;-58
2024/03/05 06:28:15;;;;;;;;;;;;;;;;;;5029143;28;5032;-59
2024/03/05 06:30:46;;;;;;;;;;;;;;;;;;5027431;28;5164;-58
2024/03/05 06:33:12;;;;;;;;;;;;;;;;;;5027011;28;4728;-57
2024/03/05 06:35:38;;;;;;;;;;;;;;;;;;5029375;28;1114;-57
2024/03/05 06:38:06;;;;;;;;;;;;;;;;;;5026897;28;4439;-58
2024/03/05 06:40:31;;;;;;;;;;;;;;;;;;5026311;28;5309;-60
2024/03/05 06:43:13;;;;;;;;;;;;;;;;;;5043401;28;5142;-57
2024/03/05 06:45:39;;;;;;;;;;;;;;;;;;5023487;28;5253;-58
2024/03/05 06:48:07;;;;;;;;;;;;;;;;;;5023820;28;5178;-57
2024/03/05 06:50:42;;;;;;;;;;;;;;;;;;5024826;28;3449;-57
2024/03/05 06:58:37;;;;;;;;;;;;;;;;;;5025594;28;5240;-58
2024/03/05 07:01:07;;;;;;;;;;;;;;;;;;5029138;28;4986;-58
2024/03/05 07:03:34;;;;;;;;;;;;;;;;;;5028431;28;5065;-58
2024/03/05 07:06:00;;;;;;;;;;;;;;;;;;5008891;28;4589;-58
2024/03/05 07:08:25;;;;;;;;;;;;;;;;;;5060121;28;3278;-58
2024/03/05 07:10:50;;;;;;;;;;;;;;;;;;5045523;28;4546;-58
2024/03/05 07:13:16;;;;;;;;;;;;;;;;;;5044873;28;4984;-59
2024/03/05 07:15:41;;;;;;;;;;;;;;;;;;5036743;28;5143;-58
2024/03/05 07:18:07;;;;;;;;;;;;;;;;;;5029503;28;4691;-58
2024/03/05 07:20:33;;;;;;;;;;;;;;;;;;5048496;28;1247;-57
2024/03/05 07:22:58;;;;;;;;;;;;;;;;;;5027818;28;4665;-58
2024/03/05 07:25:24;;;;;;;;;;;;;;;;;;5043410;28;4743;-60
2024/03/05 07:27:50;;;;;;;;;;;;;;;;;;5045061;28;5052;-59
2024/03/05 07:30:18;;;;;;;;;;;;;;;;;;5047483;28;4952;-58
2024/03/05 07:32:47;;;;;;;;;;;;;;;;;;5045432;28;2269;-58
2024/03/05 07:35:12;;;;;;;;;;;;;;;;;;5062042;28;5111;-58
2024/03/05 07:37:38;;;;;;;;;;;;;;;;;;5046525;28;4567;-58
2024/03/05 07:40:11;;;;;;;;;;;;;;;;;;5046820;28;4530;-58
2024/03/05 07:42:48;;;;;;;;;;;;;;;;;;5040486;28;5179;-58
2024/03/05 07:45:14;;;;;;;;;;;;;;;;;;5045153;28;5180;-58
2024/03/05 07:47:39;;;;;;;;;;;;;;;;;;5046384;28;3324;-58
2024/03/05 07:50:06;;;;;;;;;;;;;;;;;;5047383;28;5058;-58
2024/03/05 07:52:31;;;;;;;;;;;;;;;;;;5043533;28;5013;-58
2024/03/05 07:54:57;;;;;;;;;;;;;;;;;;5028826;28;4596;-58
2024/03/05 07:57:23;;;;;;;;;;;;;;;;;;5047276;28;5124;-58
2024/03/05 07:59:50;;;;;;;;;;;;;;;;;;5045707;28;2199;-59
2024/03/05 08:02:16;;;;;;;;;;;;;;;;;;5045029;28;4927;-57
2024/03/05 08:04:41;;;;;;;;;;;;;;;;;;5047198;28;5242;-58
2024/03/05 08:07:07;;;;;;;;;;;;;;;;;;5045059;28;4674;-58
2024/03/05 08:09:35;;;;;;;;;;;;;;;;;;5037814;28;4643;-58
2024/03/05 08:12:00;;;;;;;;;;;;;;;;;;5044784;28;4494;-58
2024/03/05 08:14:26;;;;;;;;;;;;;;;;;;5044945;28;3287;-59
2024/03/05 08:16:51;;;;;;;;;;;;;;;;;;5045868;28;4597;-58
2024/03/05 08:19:17;;;;;;;;;;;;;;;;;;5042779;28;4960;-58
2024/03/05 08:21:42;;;;;;;;;;;;;;;;;;5047449;28;4942;-58
2024/03/05 08:24:09;;;;;;;;;;;;;;;;;;5053302;28;4890;-59
2024/03/05 08:26:34;;;;;;;;;;;;;;;;;;5054200;28;1129;-58
2024/03/05 08:29:00;;;;;;;;;;;;;;;;;;5049902;28;4961;-58
2024/03/05 08:31:25;;;;;;;;;;;;;;;;;;5053790;28;4976;-58
2024/03/05 08:33:51;;;;;;;;;;;;;;;;;;5051698;28;5048;-58
2024/03/05 08:36:16;;;;;;;;;;;;;;;;;;5048761;28;5383;-58
2024/03/05 08:38:41;;;;;;;;;;;;;;;;;;5052426;28;3160;-58
2024/03/05 08:41:07;;;;;;;;;;;;;;;;;;5052809;28;5070;-58
2024/03/05 08:43:32;;;;;;;;;;;;;;;;;;5053851;28;4465;-58
2024/03/05 08:45:57;;;;;;;;;;;;;;;;;;5044642;28;5112;-58
2024/03/05 08:48:23;;;;;;;;;;;;;;;;;;5054477;28;4895;-58
2024/03/05 08:50:48;;;;;;;;;;;;;;;;;;5051991;28;3275;-59
2024/03/05 08:53:14;;;;;;;;;;;;;;;;;;5053604;28;5048;-59
2024/03/05 08:55:39;;;;;;;;;;;;;;;;;;5050995;28;4935;-58
2024/03/05 08:58:04;;;;;;;;;;;;;;;;;;5053290;28;4555;-57
2024/03/05 09:00:33;;;;;;;;;;;;;;;;;;5053312;28;4983;-58
2024/03/05 09:02:58;;;;;;;;;;;;;;;;;;5052788;28;5033;-58
2024/03/05 09:05:24;;;;;;;;;;;;;;;;;;5048652;28;3156;-58
2024/03/05 09:07:50;;;;;;;;;;;;;;;;;;5052576;28;4788;-58
2024/03/05 09:10:17;;;;;;;;;;;;;;;;;;5054950;28;5147;-58
2024/03/05 09:12:43;;;;;;;;;;;;;;;;;;5045469;28;5631;-58
2024/03/05 09:15:09;;;;;;;;;;;;;;;;;;5045194;28;5105;-58
2024/03/05 09:17:34;;;;;;;;;;;;;;;;;;5050418;28;3331;-58
2024/03/05 09:20:00;;;;;;;;;;;;;;;;;;5051318;28;5092;-58
2024/03/05 09:22:25;;;;;;;;;;;;;;;;;;5049443;28;5047;-58
2024/03/05 09:24:51;;;;;;;;;;;;;;;;;;5052992;28;4616;-58
2024/03/05 09:27:16;;;;;;;;;;;;;;;;;;5053217;28;4993;-58
2024/03/05 09:29:43;;;;;;;;;;;;;;;;;;5053696;28;1462;-58
2024/03/05 09:32:08;;;;;;;;;;;;;;;;;;5050920;28;4995;-57
2024/03/05 09:34:34;;;;;;;;;;;;;;;;;;5063248;28;4682;-58
2024/03/05 09:36:59;;;;;;;;;;;;;;;;;;5049700;28;4809;-59
2024/03/05 09:39:24;;;;;;;;;;;;;;;;;;5044194;28;4522;-59
2024/03/05 09:41:50;;;;;;;;;;;;;;;;;;5045438;28;3280;-58
2024/03/05 09:44:15;;;;;;;;;;;;;;;;;;5046328;28;4668;-58
2024/03/05 09:46:45;;;;;;;;;;;;;;;;;;5049607;28;4976;-58
2024/03/05 09:49:12;;;;;;;;;;;;;;;;;;5061811;28;5217;-58
2024/03/05 09:51:41;;;;;;;;;;;;;;;;;;5031572;28;4536;-58
2024/03/05 09:54:10;;;;;;;;;;;;;;;;;;5063403;28;5176;-58
2024/03/05 09:56:35;;;;;;;;;;;;;;;;;;5050023;28;1192;-58
2024/03/05 09:59:03;;;;;;;;;;;;;;;;;;5060078;28;5016;-58
2024/03/05 10:01:28;;;;;;;;;;;;;;;;;;5064128;28;5090;-58
2024/03/05 10:03:53;;;;;;;;;;;;;;;;;;5047855;28;4543;-58
2024/03/05 10:06:19;;;;;;;;;;;;;;;;;;5045227;28;5921;-58
2024/03/05 10:08:44;;;;;;;;;;;;;;;;;;5047153;28;3148;-57
2024/03/05 10:11:09;;;;;;;;;;;;;;;;;;5043188;28;4634;-59
2024/03/05 10:13:35;;;;;;;;;;;;;;;;;;5049138;28;5131;-59
2024/03/05 10:16:12;;;;;;;;;;;;;;;;;;5043602;28;4922;-58
2024/03/05 10:18:37;;;;;;;;;;;;;;;;;;5058995;28;5061;-58
2024/03/05 10:21:18;;;;;;;;;;;;;;;;;;5048378;28;4508;-57
2024/03/05 10:23:44;;;;;;;;;;;;;;;;;;5049276;28;1192;-59
2024/03/05 10:26:20;;;;;;;;;;;;;;;;;;5030439;28;4885;-58
2024/03/05 10:28:45;;;;;;;;;;;;;;;;;;5046858;28;4948;-58
2024/03/05 10:31:18;;;;;;;;;;;;;;;;;;5046292;28;5137;-58
2024/03/05 10:33:43;;;;;;;;;;;;;;;;;;5042141;28;4733;-59
2024/03/05 10:36:10;;;;;;;;;;;;;;;;;;5045640;28;5162;-58
2024/03/05 10:38:35;;;;;;;;;;;;;;;;;;5049040;28;1902;-58
2024/03/05 10:41:01;;;;;;;;;;;;;;;;;;5048371;28;5045;-58
2024/03/05 10:43:26;;;;;;;;;;;;;;;;;;5042514;28;4897;-58
2024/03/05 10:45:51;;;;;;;;;;;;;;;;;;5045311;28;5047;-58
2024/03/05 10:48:18;;;;;;;;;;;;;;;;;;5061620;28;5032;-58
2024/03/05 10:50:44;;;;;;;;;;;;;;;;;;5048745;28;1092;-58
2024/03/05 10:53:10;;;;;;;;;;;;;;;;;;5056082;28;4465;-58
2024/03/05 10:55:36;;;;;;;;;;;;;;;;;;5048220;28;5119;-58
2024/03/05 11:00:47;;;;;;;;;;;;;;;;;;5015822;28;5050;-59
2024/03/05 11:03:14;;;;;;;;;;;;;;;;;;5062214;28;5074;-58
2024/03/05 11:05:40;;;;;;;;;;;;;;;;;;5030638;28;1786;-59
2024/03/05 11:08:07;;;;;;;;;;;;;;;;;;5062725;28;5383;-58
2024/03/05 11:10:32;;;;;;;;;;;;;;;;;;5058039;28;4999;-58
2024/03/05 11:12:58;;;;;;;;;;;;;;;;;;5061754;28;5165;-58
2024/03/05 11:15:23;;;;;;;;;;;;;;;;;;5061799;28;5158;-58
2024/03/05 11:17:49;;;;;;;;;;;;;;;;;;5046320;28;3719;-58
2024/03/05 11:20:33;;;;;;;;;;;;;;;;;;5048203;28;4909;-58
2024/03/05 11:22:58;;;;;;;;;;;;;;;;;;5047569;28;5373;-58
2024/03/05 11:25:33;;;;;;;;;;;;;;;;;;5062582;28;5146;-59
2024/03/05 11:28:01;;;;;;;;;;;;;;;;;;5038045;28;5013;-58
2024/03/05 11:30:29;;;;;;;;;;;;;;;;;;5041792;28;4954;-58
2024/03/05 11:32:55;;;;;;;;;;;;;;;;;;5045683;28;5116;-59
2024/03/05 11:35:20;;;;;;;;;;;;;;;;;;5030601;28;1149;-58
2024/03/05 11:37:47;;;;;;;;;;;;;;;;;;5042648;28;5329;-59
2024/03/05 11:40:12;;;;;;;;;;;;;;;;;;5038401;28;4667;-58
2024/03/05 11:42:38;;;;;;;;;;;;;;;;;;5047407;28;5127;-59
2024/03/05 11:45:03;;;;;;;;;;;;;;;;;;5056198;28;5221;-58
2024/03/05 11:47:29;;;;;;;;;;;;;;;;;;5041228;28;3256;-58
2024/03/05 11:49:54;;;;;;;;;;;;;;;;;;5047534;28;5182;-58
2024/03/05 11:52:20;;;;;;;;;;;;;;;;;;5043923;28;5138;-58
2024/03/05 11:54:56;;;;;;;;;;;;;;;;;;5040601;28;4857;-58
2024/03/05 11:57:21;;;;;;;;;;;;;;;;;;5047065;28;4936;-57
2024/03/05 11:59:48;;;;;;;;;;;;;;;;;;5047975;28;1140;-58
2024/03/05 12:02:16;;;;;;;;;;;;;;;;;;5047721;28;4923;-58
2024/03/05 12:04:44;;;;;;;;;;;;;;;;;;5037746;28;4991;-58
2024/03/05 12:07:12;;;;;;;;;;;;;;;;;;5046640;28;5267;-58
2024/03/05 12:09:39;;;;;;;;;;;;;;;;;;5057320;28;5215;-58
2024/03/05 12:12:11;;;;;;;;;;;;;;;;;;5038854;28;5027;-58
2024/03/05 12:14:36;;;;;;;;;;;;;;;;;;5042592;28;1362;-57
2024/03/05 12:17:07;;;;;;;;;;;;;;;;;;5060771;28;4879;-58
2024/03/05 12:19:32;;;;;;;;;;;;;;;;;;5044283;28;5049;-58
2024/03/05 12:21:58;;;;;;;;;;;;;;;;;;5038508;28;5106;-57
2024/03/05 12:24:24;;;;;;;;;;;;;;;;;;5046681;28;4951;-58
2024/03/05 12:26:50;;;;;;;;;;;;;;;;;;5027895;28;2053;-58
2024/03/05 12:29:48;;;;;;;;;;;;;;;;;;5059897;28;4819;-58
2024/03/05 12:32:13;;;;;;;;;;;;;;;;;;5014250;28;4888;-57
2024/03/05 12:34:39;;;;;;;;;;;;;;;;;;5059540;28;5031;-59
2024/03/05 12:37:08;;;;;;;;;;;;;;;;;;5046809;28;5335;-57
2024/03/05 12:39:33;;;;;;;;;;;;;;;;;;5045732;28;4874;-58
2024/03/05 12:41:59;;;;;;;;;;;;;;;;;;5046595;28;5082;-58
2024/03/05 12:44:24;;;;;;;;;;;;;;;;;;5044268;28;3403;-58
2024/03/05 12:46:50;;;;;;;;;;;;;;;;;;5045814;28;4485;-58
2024/03/05 12:49:15;;;;;;;;;;;;;;;;;;5042432;28;4444;-58
2024/03/05 12:51:40;;;;;;;;;;;;;;;;;;5046606;28;5202;-59
2024/03/05 12:54:06;;;;;;;;;;;;;;;;;;5046529;28;4646;-58
2024/03/05 12:56:39;;;;;;;;;;;;;;;;;;5047249;28;1103;-58
2024/03/05 12:59:06;;;;;;;;;;;;;;;;;;5027337;28;4962;-58
2024/03/05 13:01:31;;;;;;;;;;;;;;;;;;5046375;28;4495;-58
2024/03/05 13:03:56;;;;;;;;;;;;;;;;;;5044759;28;5039;-58
2024/03/05 13:06:22;;;;;;;;;;;;;;;;;;5040284;28;4691;-58
2024/03/05 13:08:47;;;;;;;;;;;;;;;;;;5045908;28;2293;-57
2024/03/05 13:11:13;;;;;;;;;;;;;;;;;;5048209;28;4924;-57
2024/03/05 13:13:38;;;;;;;;;;;;;;;;;;5047161;28;4998;-57
2024/03/05 13:16:05;;;;;;;;;;;;;;;;;;5043694;28;4993;-57
2024/03/05 13:18:30;;;;;;;;;;;;;;;;;;5047472;28;5175;-58
2024/03/05 13:20:56;;;;;;;;;;;;;;;;;;5049871;28;5323;-58
2024/03/05 13:23:21;;;;;;;;;;;;;;;;;;5050475;28;1163;-57
2024/03/05 13:25:47;;;;;;;;;;;;;;;;;;5040357;28;5259;-58
2024/03/05 13:28:13;;;;;;;;;;;;;;;;;;5048533;28;5010;-57
2024/03/05 13:30:39;;;;;;;;;;;;;;;;;;5050065;28;4538;-59
2024/03/05 13:33:04;;;;;;;;;;;;;;;;;;5047733;28;4535;-58
2024/03/05 13:35:30;;;;;;;;;;;;;;;;;;5050641;28;1221;-57
2024/03/05 13:37:55;;;;;;;;;;;;;;;;;;5049372;28;4691;-57
2024/03/05 13:40:21;;;;;;;;;;;;;;;;;;5049809;28;4473;-58
2024/03/05 13:42:47;;;;;;;;;;;;;;;;;;5040442;28;5071;-57
2024/03/05 13:45:12;;;;;;;;;;;;;;;;;;5048692;28;5054;-57
2024/03/05 13:47:38;;;;;;;;;;;;;;;;;;5051518;28;1111;-58
2024/03/05 13:50:10;;;;;;;;;;;;;;;;;;5059646;28;5070;-57
2024/03/05 13:52:41;;;;;;;;;;;;;;;;;;5044297;28;5243;-57
2024/03/05 13:55:06;;;;;;;;;;;;;;;;;;5049542;28;4705;-57
2024/03/05 13:57:32;;;;;;;;;;;;;;;;;;5048983;28;4995;-57
2024/03/05 13:59:57;;;;;;;;;;;;;;;;;;5048612;28;4943;-57
2024/03/05 14:02:24;;;;;;;;;;;;;;;;;;5048180;28;2361;-57
2024/03/05 14:04:49;;;;;;;;;;;;;;;;;;5047515;28;4860;-56
2024/03/05 14:07:15;;;;;;;;;;;;;;;;;;5050139;28;4681;-57
2024/03/05 14:09:45;;;;;;;;;;;;;;;;;;5027148;28;5234;-57
2024/03/05 14:12:13;;;;;;;;;;;;;;;;;;5008886;28;4683;-57
2024/03/05 14:14:40;;;;;;;;;;;;;;;;;;5025060;28;2584;-58
2024/03/05 14:17:05;;;;;;;;;;;;;;;;;;5027349;28;5037;-57
2024/03/05 14:19:31;;;;;;;;;;;;;;;;;;5025152;28;4729;-57
2024/03/05 14:22:00;;;;;;;;;;;;;;;;;;5029277;28;5004;-56
2024/03/05 14:24:26;;;;;;;;;;;;;;;;;;5028536;28;5206;-57
2024/03/05 14:26:52;;;;;;;;;;;;;;;;;;5027601;28;1197;-56
2024/03/05 14:29:17;;;;;;;;;;;;;;;;;;5024568;28;5002;-56
2024/03/05 14:31:42;;;;;;;;;;;;;;;;;;5027406;28;5099;-57
2024/03/05 14:34:08;;;;;;;;;;;;;;;;;;5027347;28;5161;-56
2024/03/05 14:36:33;;;;;;;;;;;;;;;;;;5025680;28;5146;-56
2024/03/05 14:39:02;;;;;;;;;;;;;;;;;;5009833;28;4941;-56
2024/03/05 14:41:27;;;;;;;;;;;;;;;;;;5029243;28;1156;-57
2024/03/05 14:43:52;;;;;;;;;;;;;;;;;;5029004;28;5022;-57
2024/03/05 14:46:18;;;;;;;;;;;;;;;;;;5023533;28;4766;-57
2024/03/05 14:48:43;;;;;;;;;;;;;;;;;;5030047;28;5142;-57
2024/03/05 14:51:10;;;;;;;;;;;;;;;;;;5029053;28;5251;-56
2024/03/05 14:53:35;;;;;;;;;;;;;;;;;;5027792;28;2262;-56
2024/03/05 14:56:03;;;;;;;;;;;;;;;;;;5019682;28;5083;-57
2024/03/05 14:58:29;;;;;;;;;;;;;;;;;;5010146;28;5072;-57
2024/03/05 15:00:55;;;;;;;;;;;;;;;;;;5025130;28;5074;-57
2024/03/05 15:03:20;;;;;;;;;;;;;;;;;;5023176;28;4729;-56
2024/03/05 15:05:45;;;;;;;;;;;;;;;;;;5003253;28;3387;-58
2024/03/05 15:08:11;;;;;;;;;;;;;;;;;;5040839;28;4882;-57
2024/03/05 15:10:38;;;;;;;;;;;;;;;;;;5024048;28;5633;-57
2024/03/05 15:13:03;;;;;;;;;;;;;;;;;;5059094;28;4646;-59
2024/03/05 15:15:28;;;;;;;;;;;;;;;;;;5040746;28;5138;-61
2024/03/05 15:17:54;;;;;;;;;;;;;;;;;;5045681;28;3268;-60
2024/03/05 15:20:21;;;;;;;;;;;;;;;;;;5048300;28;4810;-59
2024/03/05 15:22:50;;;;;;;;;;;;;;;;;;5045555;28;5027;-58
2024/03/05 15:25:19;;;;;;;;;;;;;;;;;;5046174;28;4933;-58
2024/03/05 15:27:44;;;;;;;;;;;;;;;;;;5047730;28;5041;-60
2024/03/05 15:30:13;;;;;;;;;;;;;;;;;;5041753;28;4946;-58
2024/03/05 15:32:47;;;;;;;;;;;;;;;;;;5045137;28;3364;-59
2024/03/05 15:35:19;;;;;;;;;;;;;;;;;;5043159;28;4977;-58
2024/03/05 15:37:45;;;;;;;;;;;;;;;;;;5045819;28;5076;-59
2024/03/05 15:40:18;;;;;;;;;;;;;;;;;;5052963;28;4938;-58
2024/03/05 15:42:50;;;;;;;;;;;;;;;;;;5027195;28;5232;-59
2024/03/05 15:45:16;;;;;;;;;;;;;;;;;;5037276;28;5108;-57
2024/03/05 15:47:42;;;;;;;;;;;;;;;;;;5038259;28;3422;-60
2024/03/05 15:50:08;;;;;;;;;;;;;;;;;;5036324;28;5013;-58
2024/03/05 15:52:33;;;;;;;;;;;;;;;;;;5045855;28;5531;-59
2024/03/05 15:54:59;;;;;;;;;;;;;;;;;;5042235;28;4545;-59
2024/03/05 15:57:31;;;;;;;;;;;;;;;;;;5037413;28;5159;-67
2024/03/05 16:00:18;;;;;;;;;;;;;;;;;;5029106;28;4558;-62
2024/03/05 16:02:42;;;;;;;;;;;;;;;;;;5038512;28;3654;-65
2024/03/05 16:05:07;;;;;;;;;;;;;;;;;;5040441;28;4911;-67
2024/03/05 16:07:33;;;;;;;;;;;;;;;;;;5037749;28;4504;-69
2024/03/05 16:10:09;;;;;;;;;;;;;;;;;;5044260;28;4892;-70
2024/03/05 16:12:38;;;;;;;;;;;;;;;;;;5044775;28;5133;-63
2024/03/05 16:15:04;;;;;;;;;;;;;;;;;;5042992;28;5114;-63
2024/03/05 16:17:29;;;;;;;;;;;;;;;;;;5043942;28;3531;-61
2024/03/05 16:19:55;;;;;;;;;;;;;;;;;;5044979;28;5116;-63
2024/03/05 16:22:20;;;;;;;;;;;;;;;;;;5043853;28;4831;-65
2024/03/05 16:24:46;;;;;;;;;;;;;;;;;;5046276;28;4536;-64
2024/03/05 16:27:11;;;;;;;;;;;;;;;;;;5044084;28;4618;-62
2024/03/05 16:29:37;;;;;;;;;;;;;;;;;;5048581;28;3394;-61
2024/03/05 16:32:02;;;;;;;;;;;;;;;;;;5044831;28;5068;-61
2024/03/05 16:34:28;;;;;;;;;;;;;;;;;;5038019;28;4755;-61
2024/03/05 16:36:53;;;;;;;;;;;;;;;;;;5041344;28;5101;-65
2024/03/05 16:39:19;;;;;;;;;;;;;;;;;;5037283;28;5152;-65
2024/03/05 16:41:45;;;;;;;;;;;;;;;;;;5045155;28;3410;-60
2024/03/05 16:44:10;;;;;;;;;;;;;;;;;;5044125;28;4464;-60
2024/03/05 16:46:35;;;;;;;;;;;;;;;;;;5043251;28;5055;-60
2024/03/05 16:49:03;;;;;;;;;;;;;;;;;;5043576;28;5222;-60
2024/03/05 16:51:29;;;;;;;;;;;;;;;;;;5039369;28;5054;-65
2024/03/05 16:53:54;;;;;;;;;;;;;;;;;;5048968;28;5108;-65
2024/03/05 16:56:21;;;;;;;;;;;;;;;;;;5022692;28;3501;-66
2024/03/05 16:58:47;;;;;;;;;;;;;;;;;;5039074;28;5165;-66
2024/03/05 17:01:16;;;;;;;;;;;;;;;;;;5039908;28;4535;-65
2024/03/05 17:03:44;;;;;;;;;;;;;;;;;;5040932;28;5028;-65
2024/03/05 17:06:13;;;;;;;;;;;;;;;;;;5047367;28;5080;-64